createdAt,value
2018-07-26T00:00:28.280Z,1004.27
2018-07-26T00:01:28.308Z,1004.27
2018-07-26T00:02:28.336Z,1004.28
2018-07-26T00:03:28.363Z,1004.26
2018-07-26T00:04:28.394Z,1004.25
2018-07-26T00:05:28.424Z,1004.23
2018-07-26T00:06:28.451Z,1004.22
2018-07-26T00:07:28.480Z,1004.26
2018-07-26T00:08:28.508Z,1004.2
2018-07-26T00:09:28.537Z,1004.26
2018-07-26T00:10:28.566Z,1004.27
2018-07-26T00:11:28.594Z,1004.26
2018-07-26T00:12:28.623Z,1004.26
2018-07-26T00:13:28.653Z,1004.24
2018-07-26T00:14:28.680Z,1004.25
2018-07-26T00:15:28.709Z,1004.27
2018-07-26T00:16:28.739Z,1004.26
2018-07-26T00:17:28.772Z,1004.26
2018-07-26T00:18:28.795Z,1004.26
2018-07-26T00:19:28.823Z,1004.28
2018-07-26T00:20:28.853Z,1004.25
2018-07-26T00:21:28.891Z,1004.25
2018-07-26T00:22:28.913Z,1004.25
2018-07-26T00:23:28.937Z,1004.28
2018-07-26T00:24:28.965Z,1004.27
2018-07-26T00:25:28.993Z,1004.3
2018-07-26T00:26:29.025Z,1004.33
2018-07-26T00:27:29.064Z,1004.31
2018-07-26T00:28:29.078Z,1004.3
2018-07-26T00:29:29.110Z,1004.34
2018-07-26T00:30:29.136Z,1004.3
2018-07-26T00:31:29.165Z,1004.33
2018-07-26T00:32:29.195Z,1004.3
2018-07-26T00:33:29.221Z,1004.33
2018-07-26T00:34:29.251Z,1004.3
2018-07-26T00:35:29.279Z,1004.32
2018-07-26T00:36:29.308Z,1004.33
2018-07-26T00:37:29.334Z,1004.32
2018-07-26T00:38:29.362Z,1004.34
2018-07-26T00:39:29.390Z,1004.3
2018-07-26T00:40:29.419Z,1004.3
2018-07-26T00:41:29.448Z,1004.32
2018-07-26T00:42:29.474Z,1004.32
2018-07-26T00:43:29.503Z,1004.31
2018-07-26T00:44:29.532Z,1004.29
2018-07-26T00:45:29.560Z,1004.27
2018-07-26T00:46:29.588Z,1004.3
2018-07-26T00:47:29.617Z,1004.28
2018-07-26T00:48:29.646Z,1004.28
2018-07-26T00:49:29.673Z,1004.31
2018-07-26T00:50:29.701Z,1004.28
2018-07-26T00:51:29.729Z,1004.26
2018-07-26T00:52:29.758Z,1004.25
2018-07-26T00:53:29.785Z,1004.29
2018-07-26T00:54:29.813Z,1004.26
2018-07-26T00:55:29.841Z,1004.28
2018-07-26T00:56:29.873Z,1004.27
2018-07-26T00:57:29.896Z,1004.23
2018-07-26T00:58:29.925Z,1004.24
2018-07-26T00:59:29.954Z,1004.24
2018-07-26T01:00:29.981Z,1004.27
2018-07-26T01:01:30.010Z,1004.29
2018-07-26T01:02:30.039Z,1004.28
2018-07-26T01:03:30.067Z,1004.28
2018-07-26T01:04:30.094Z,1004.27
2018-07-26T01:05:30.123Z,1004.28
2018-07-26T01:06:30.149Z,1004.28
2018-07-26T01:07:30.179Z,1004.27
2018-07-26T01:08:30.206Z,1004.31
2018-07-26T01:09:30.242Z,1004.28
2018-07-26T01:10:30.262Z,1004.27
2018-07-26T01:11:30.288Z,1004.29
2018-07-26T01:12:30.318Z,1004.28
2018-07-26T01:13:30.346Z,1004.25
2018-07-26T01:14:30.372Z,1004.23
2018-07-26T01:15:30.402Z,1004.24
2018-07-26T01:16:30.429Z,1004.24
2018-07-26T01:17:30.457Z,1004.23
2018-07-26T01:18:30.482Z,1004.21
2018-07-26T01:19:30.511Z,1004.23
2018-07-26T01:20:30.540Z,1004.25
2018-07-26T01:21:30.567Z,1004.24
2018-07-26T01:22:30.593Z,1004.24
2018-07-26T01:23:30.621Z,1004.22
2018-07-26T01:24:30.649Z,1004.21
2018-07-26T01:25:30.677Z,1004.24
2018-07-26T01:26:30.705Z,1004.24
2018-07-26T01:27:30.732Z,1004.22
2018-07-26T01:28:30.761Z,1004.23
2018-07-26T01:29:30.787Z,1004.24
2018-07-26T01:30:30.815Z,1004.17
2018-07-26T01:31:30.845Z,1004.21
2018-07-26T01:32:30.872Z,1004.21
2018-07-26T01:33:30.898Z,1004.22
2018-07-26T01:34:30.927Z,1004.22
2018-07-26T01:35:30.952Z,1004.27
2018-07-26T01:36:30.980Z,1004.25
2018-07-26T01:37:31.009Z,1004.26
2018-07-26T01:38:31.037Z,1004.27
2018-07-26T01:39:31.064Z,1004.27
2018-07-26T01:40:31.089Z,1004.24
2018-07-26T01:41:31.118Z,1004.24
2018-07-26T01:42:31.146Z,1004.28
2018-07-26T01:43:31.175Z,1004.3
2018-07-26T01:44:31.199Z,1004.31
2018-07-26T01:45:31.229Z,1004.28
2018-07-26T01:46:31.254Z,1004.3
2018-07-26T01:47:31.282Z,1004.26
2018-07-26T01:48:31.308Z,1004.27
2018-07-26T01:49:31.339Z,1004.29
2018-07-26T01:50:31.365Z,1004.26
2018-07-26T01:51:31.391Z,1004.25
2018-07-26T01:52:31.417Z,1004.25
2018-07-26T01:53:31.447Z,1004.3
2018-07-26T01:54:31.476Z,1004.3
2018-07-26T01:55:31.500Z,1004.3
2018-07-26T01:56:31.531Z,1004.33
2018-07-26T01:57:31.556Z,1004.3
2018-07-26T01:58:31.582Z,1004.3
2018-07-26T01:59:31.609Z,1004.32
2018-07-26T02:00:31.641Z,1004.33
2018-07-26T02:01:31.664Z,1004.32
2018-07-26T02:02:31.691Z,1004.31
2018-07-26T02:03:31.719Z,1004.34
2018-07-26T02:04:31.745Z,1004.35
2018-07-26T02:05:31.774Z,1004.35
2018-07-26T02:06:31.798Z,1004.32
2018-07-26T02:07:31.827Z,1004.33
2018-07-26T02:08:31.858Z,1004.35
2018-07-26T02:09:31.882Z,1004.31
2018-07-26T02:10:31.908Z,1004.29
2018-07-26T02:11:31.935Z,1004.34
2018-07-26T02:12:31.962Z,1004.33
2018-07-26T02:13:31.989Z,1004.37
2018-07-26T02:14:32.017Z,1004.34
2018-07-26T02:15:32.045Z,1004.34
2018-07-26T02:16:32.087Z,1004.33
2018-07-26T02:17:32.116Z,1004.36
2018-07-26T02:18:32.124Z,1004.34
2018-07-26T02:19:32.174Z,1004.34
2018-07-26T02:20:32.179Z,1004.35
2018-07-26T02:21:32.206Z,1004.34
2018-07-26T02:22:32.233Z,1004.31
2018-07-26T02:23:32.259Z,1004.33
2018-07-26T02:24:32.285Z,1004.29
2018-07-26T02:25:32.314Z,1004.29
2018-07-26T02:26:32.339Z,1004.27
2018-07-26T02:27:32.368Z,1004.27
2018-07-26T02:28:32.394Z,1004.3
2018-07-26T02:29:32.421Z,1004.25
2018-07-26T02:30:32.447Z,1004.24
2018-07-26T02:31:32.474Z,1004.26
2018-07-26T02:32:32.501Z,1004.24
2018-07-26T02:33:32.532Z,1004.25
2018-07-26T02:34:32.555Z,1004.23
2018-07-26T02:35:32.584Z,1004.22
2018-07-26T02:36:32.609Z,1004.26
2018-07-26T02:37:32.636Z,1004.27
2018-07-26T02:38:32.662Z,1004.25
2018-07-26T02:39:32.687Z,1004.24
2018-07-26T02:40:32.714Z,1004.25
2018-07-26T02:41:32.742Z,1004.28
2018-07-26T02:42:32.769Z,1004.3
2018-07-26T02:43:32.797Z,1004.25
2018-07-26T02:44:32.822Z,1004.29
2018-07-26T02:45:32.851Z,1004.26
2018-07-26T02:46:32.875Z,1004.25
2018-07-26T02:47:32.915Z,1004.27
2018-07-26T02:48:32.931Z,1004.27
2018-07-26T02:49:32.957Z,1004.31
2018-07-26T02:50:32.982Z,1004.37
2018-07-26T02:51:33.008Z,1004.37
2018-07-26T02:52:33.037Z,1004.39
2018-07-26T02:53:33.062Z,1004.39
2018-07-26T02:54:33.090Z,1004.4
2018-07-26T02:55:33.115Z,1004.43
2018-07-26T02:56:33.141Z,1004.37
2018-07-26T02:57:33.168Z,1004.42
2018-07-26T02:58:33.194Z,1004.42
2018-07-26T02:59:33.224Z,1004.4
2018-07-26T03:00:33.249Z,1004.41
2018-07-26T03:01:33.275Z,1004.38
2018-07-26T03:02:33.301Z,1004.42
2018-07-26T03:03:33.327Z,1004.41
2018-07-26T03:04:33.352Z,1004.45
2018-07-26T03:05:33.383Z,1004.43
2018-07-26T03:06:33.407Z,1004.41
2018-07-26T03:07:33.435Z,1004.44
2018-07-26T03:08:33.460Z,1004.44
2018-07-26T03:09:33.486Z,1004.47
2018-07-26T03:10:33.513Z,1004.49
2018-07-26T03:11:33.539Z,1004.46
2018-07-26T03:12:33.578Z,1004.4
2018-07-26T03:13:33.592Z,1004.45
2018-07-26T03:14:33.618Z,1004.48
2018-07-26T03:15:33.648Z,1004.46
2018-07-26T03:16:33.671Z,1004.46
2018-07-26T03:17:33.699Z,1004.45
2018-07-26T03:18:33.723Z,1004.42
2018-07-26T03:19:33.762Z,1004.45
2018-07-26T03:20:33.776Z,1004.43
2018-07-26T03:21:33.803Z,1004.44
2018-07-26T03:22:33.829Z,1004.44
2018-07-26T03:23:33.855Z,1004.43
2018-07-26T03:24:33.886Z,1004.47
2018-07-26T03:25:33.911Z,1004.43
2018-07-26T03:26:33.933Z,1004.48
2018-07-26T03:27:33.959Z,1004.48
2018-07-26T03:28:33.985Z,1004.5
2018-07-26T03:29:34.011Z,1004.49
2018-07-26T03:30:34.039Z,1004.48
2018-07-26T03:31:34.065Z,1004.47
2018-07-26T03:32:34.093Z,1004.48
2018-07-26T03:33:34.117Z,1004.47
2018-07-26T03:34:34.142Z,1004.45
2018-07-26T03:35:34.168Z,1004.43
2018-07-26T03:36:34.194Z,1004.47
2018-07-26T03:37:34.221Z,1004.46
2018-07-26T03:38:34.248Z,1004.46
2018-07-26T03:39:34.274Z,1004.49
2018-07-26T03:40:34.302Z,1004.47
2018-07-26T03:41:34.325Z,1004.49
2018-07-26T03:42:34.353Z,1004.46
2018-07-26T03:43:34.453Z,1004.48
2018-07-26T03:44:34.404Z,1004.49
2018-07-26T03:45:34.431Z,1004.49
2018-07-26T03:46:34.465Z,1004.48
2018-07-26T03:47:34.485Z,1004.46
2018-07-26T03:48:34.508Z,1004.46
2018-07-26T03:49:34.534Z,1004.44
2018-07-26T03:50:34.561Z,1004.43
2018-07-26T03:51:34.587Z,1004.44
2018-07-26T03:52:34.613Z,1004.43
2018-07-26T03:53:34.639Z,1004.44
2018-07-26T03:54:34.663Z,1004.46
2018-07-26T03:55:34.689Z,1004.47
2018-07-26T03:56:34.716Z,1004.51
2018-07-26T03:57:34.741Z,1004.54
2018-07-26T03:58:34.769Z,1004.51
2018-07-26T03:59:34.793Z,1004.57
2018-07-26T04:00:34.819Z,1004.57
2018-07-26T04:01:34.847Z,1004.56
2018-07-26T04:02:34.870Z,1004.61
2018-07-26T04:03:34.897Z,1004.61
2018-07-26T04:04:34.923Z,1004.58
2018-07-26T04:05:35.015Z,1004.59
2018-07-26T04:06:34.978Z,1004.6
2018-07-26T04:07:35.001Z,1004.59
2018-07-26T04:08:35.028Z,1004.57
2018-07-26T04:09:35.054Z,1004.57
2018-07-26T04:10:35.079Z,1004.58
2018-07-26T04:11:35.105Z,1004.59
2018-07-26T04:12:35.129Z,1004.56
2018-07-26T04:13:35.157Z,1004.6
2018-07-26T04:14:35.183Z,1004.6
2018-07-26T04:15:35.208Z,1004.62
2018-07-26T04:16:35.236Z,1004.6
2018-07-26T04:17:35.264Z,1004.62
2018-07-26T04:18:35.286Z,1004.63
2018-07-26T04:19:35.311Z,1004.59
2018-07-26T04:20:35.339Z,1004.66
2018-07-26T04:21:35.363Z,1004.62
2018-07-26T04:22:35.389Z,1004.64
2018-07-26T04:23:35.417Z,1004.63
2018-07-26T04:24:35.440Z,1004.64
2018-07-26T04:25:35.466Z,1004.62
2018-07-26T04:26:35.492Z,1004.62
2018-07-26T04:27:35.519Z,1004.62
2018-07-26T04:28:35.546Z,1004.66
2018-07-26T04:29:35.568Z,1004.64
2018-07-26T04:30:35.596Z,1004.67
2018-07-26T04:31:35.621Z,1004.68
2018-07-26T04:32:35.645Z,1004.65
2018-07-26T04:33:35.756Z,1004.67
2018-07-26T04:34:35.697Z,1004.67
2018-07-26T04:35:35.725Z,1004.67
2018-07-26T04:36:35.748Z,1004.67
2018-07-26T04:37:35.776Z,1004.68
2018-07-26T04:38:35.800Z,1004.65
2018-07-26T04:39:35.825Z,1004.66
2018-07-26T04:40:35.856Z,1004.65
2018-07-26T04:41:35.878Z,1004.65
2018-07-26T04:42:35.903Z,1004.65
2018-07-26T04:43:35.928Z,1004.64
2018-07-26T04:44:35.953Z,1004.62
2018-07-26T04:45:35.980Z,1004.67
2018-07-26T04:46:36.011Z,1004.65
2018-07-26T04:47:36.031Z,1004.66
2018-07-26T04:48:36.057Z,1004.66
2018-07-26T04:49:36.083Z,1004.68
2018-07-26T04:50:36.107Z,1004.72
2018-07-26T04:51:36.132Z,1004.71
2018-07-26T04:52:36.161Z,1004.7
2018-07-26T04:53:36.190Z,1004.68
2018-07-26T04:54:36.254Z,1004.72
2018-07-26T04:55:36.234Z,1004.72
2018-07-26T04:56:36.260Z,1004.72
2018-07-26T04:57:36.288Z,1004.7
2018-07-26T04:58:36.312Z,1004.71
2018-07-26T04:59:36.338Z,1004.72
2018-07-26T05:00:36.363Z,1004.72
2018-07-26T05:01:36.391Z,1004.7
2018-07-26T05:02:36.413Z,1004.71
2018-07-26T05:03:36.440Z,1004.72
2018-07-26T05:04:36.466Z,1004.74
2018-07-26T05:05:36.491Z,1004.76
2018-07-26T05:06:36.521Z,1004.77
2018-07-26T05:07:36.542Z,1004.76
2018-07-26T05:08:36.568Z,1004.8
2018-07-26T05:09:36.595Z,1004.81
2018-07-26T05:10:36.618Z,1004.86
2018-07-26T05:11:36.643Z,1004.82
2018-07-26T05:12:36.667Z,1004.79
2018-07-26T05:13:36.695Z,1004.77
2018-07-26T05:14:36.723Z,1004.8
2018-07-26T05:15:36.748Z,1004.8
2018-07-26T05:16:36.777Z,1004.82
2018-07-26T05:17:36.796Z,1004.82
2018-07-26T05:18:36.911Z,1004.81
2018-07-26T05:19:36.853Z,1004.82
2018-07-26T05:20:36.873Z,1004.78
2018-07-26T05:21:36.898Z,1004.78
2018-07-26T05:22:36.922Z,1004.82
2018-07-26T05:23:36.950Z,1004.79
2018-07-26T05:24:36.974Z,1004.83
2018-07-26T05:25:36.999Z,1004.8
2018-07-26T05:26:37.024Z,1004.81
2018-07-26T05:27:37.104Z,1004.81
2018-07-26T05:28:37.077Z,1004.79
2018-07-26T05:29:37.117Z,1004.79
2018-07-26T05:30:37.126Z,1004.79
2018-07-26T05:31:37.156Z,1004.78
2018-07-26T05:32:37.176Z,1004.83
2018-07-26T05:33:37.203Z,1004.83
2018-07-26T05:34:37.246Z,1004.83
2018-07-26T05:35:37.268Z,1004.83
2018-07-26T05:36:37.279Z,1004.82
2018-07-26T05:37:37.385Z,1004.84
2018-07-26T05:38:37.329Z,1004.82
2018-07-26T05:39:37.354Z,1004.84
2018-07-26T05:40:37.383Z,1004.82
2018-07-26T05:41:37.407Z,1004.85
2018-07-26T05:42:37.433Z,1004.82
2018-07-26T05:43:37.456Z,1004.81
2018-07-26T05:44:37.482Z,1004.83
2018-07-26T05:45:37.508Z,1004.83
2018-07-26T05:46:37.533Z,1004.84
2018-07-26T05:47:37.559Z,1004.83
2018-07-26T05:48:37.586Z,1004.85
2018-07-26T05:49:37.608Z,1004.81
2018-07-26T05:50:37.635Z,1004.85
2018-07-26T05:51:37.664Z,1004.82
2018-07-26T05:52:37.686Z,1004.77
2018-07-26T05:53:37.711Z,1004.81
2018-07-26T05:54:37.736Z,1004.84
2018-07-26T05:55:37.765Z,1004.86
2018-07-26T05:56:37.787Z,1004.86
2018-07-26T05:57:37.813Z,1004.84
2018-07-26T05:58:37.839Z,1004.88
2018-07-26T05:59:37.864Z,1004.86
2018-07-26T06:00:37.892Z,1004.89
2018-07-26T06:01:37.914Z,1004.91
2018-07-26T06:02:37.940Z,1004.91
2018-07-26T06:03:37.965Z,1004.95
2018-07-26T06:04:37.990Z,1004.94
2018-07-26T06:05:38.018Z,1004.92
2018-07-26T06:06:38.041Z,1004.92
2018-07-26T06:07:38.066Z,1004.9
2018-07-26T06:08:38.091Z,1004.94
2018-07-26T06:09:38.140Z,1004.92
2018-07-26T06:10:38.148Z,1004.96
2018-07-26T06:11:38.175Z,1004.96
2018-07-26T06:12:38.193Z,1004.96
2018-07-26T06:13:38.219Z,1004.98
2018-07-26T06:14:38.244Z,1004.99
2018-07-26T06:15:38.269Z,1004.97
2018-07-26T06:16:38.295Z,1005.02
2018-07-26T06:17:38.321Z,1004.96
2018-07-26T06:18:38.349Z,1004.98
2018-07-26T06:19:38.373Z,1005.01
2018-07-26T06:20:38.452Z,1005.01
2018-07-26T06:21:38.423Z,1005.01
2018-07-26T06:22:38.449Z,1005.05
2018-07-26T06:23:38.475Z,1005.04
2018-07-26T06:24:38.500Z,1005.04
2018-07-26T06:25:38.523Z,1005.01
2018-07-26T06:26:38.551Z,1005.02
2018-07-26T06:27:38.575Z,1005.07
2018-07-26T06:28:38.602Z,1005.06
2018-07-26T06:29:38.625Z,1005.05
2018-07-26T06:30:38.651Z,1005.05
2018-07-26T06:31:38.680Z,1005.06
2018-07-26T06:32:38.704Z,1005.05
2018-07-26T06:33:38.819Z,1005.08
2018-07-26T06:34:38.758Z,1005.07
2018-07-26T06:35:38.780Z,1005.09
2018-07-26T06:36:38.803Z,1005.13
2018-07-26T06:37:38.835Z,1005.16
2018-07-26T06:38:38.855Z,1005.13
2018-07-26T06:39:38.884Z,1005.17
2018-07-26T06:40:38.907Z,1005.14
2018-07-26T06:41:38.931Z,1005.1
2018-07-26T06:42:38.959Z,1005.11
2018-07-26T06:43:38.983Z,1005.12
2018-07-26T06:44:39.008Z,1005.1
2018-07-26T06:45:39.037Z,1005.08
2018-07-26T06:46:39.060Z,1005.1
2018-07-26T06:47:39.088Z,1005.13
2018-07-26T06:48:39.112Z,1005.09
2018-07-26T06:49:39.138Z,1005.1
2018-07-26T06:50:39.164Z,1005.12
2018-07-26T06:51:39.188Z,1005.14
2018-07-26T06:52:39.213Z,1005.13
2018-07-26T06:53:39.242Z,1005.15
2018-07-26T06:54:39.269Z,1005.14
2018-07-26T06:55:39.291Z,1005.16
2018-07-26T06:56:39.317Z,1005.19
2018-07-26T06:57:39.343Z,1005.18
2018-07-26T06:58:39.382Z,1005.18
2018-07-26T06:59:39.394Z,1005.2
2018-07-26T07:00:39.422Z,1005.18
2018-07-26T07:01:39.446Z,1005.19
2018-07-26T07:02:39.470Z,1005.17
2018-07-26T07:03:39.497Z,1005.17
2018-07-26T07:04:39.522Z,1005.21
2018-07-26T07:05:39.550Z,1005.18
2018-07-26T07:06:39.576Z,1005.21
2018-07-26T07:07:39.601Z,1005.21
2018-07-26T07:08:39.628Z,1005.2
2018-07-26T07:09:39.651Z,1005.21
2018-07-26T07:10:39.678Z,1005.21
2018-07-26T07:11:39.704Z,1005.19
2018-07-26T07:12:39.730Z,1005.22
2018-07-26T07:13:39.756Z,1005.17
2018-07-26T07:14:39.782Z,1005.17
2018-07-26T07:15:39.807Z,1005.18
2018-07-26T07:16:39.837Z,1005.17
2018-07-26T07:17:39.868Z,1005.14
2018-07-26T07:18:39.886Z,1005.19
2018-07-26T07:19:39.916Z,1005.18
2018-07-26T07:20:39.937Z,1005.21
2018-07-26T07:21:39.967Z,1005.21
2018-07-26T07:22:39.989Z,1005.18
2018-07-26T07:23:40.018Z,1005.2
2018-07-26T07:24:40.041Z,1005.18
2018-07-26T07:25:40.069Z,1005.19
2018-07-26T07:26:40.094Z,1005.15
2018-07-26T07:27:40.177Z,1005.2
2018-07-26T07:28:40.147Z,1005.22
2018-07-26T07:29:40.179Z,1005.16
2018-07-26T07:30:40.199Z,1005.16
2018-07-26T07:31:40.224Z,1005.2
2018-07-26T07:32:40.252Z,1005.21
2018-07-26T07:33:40.277Z,1005.2
2018-07-26T07:34:40.304Z,1005.19
2018-07-26T07:35:40.329Z,1005.21
2018-07-26T07:36:40.356Z,1005.24
2018-07-26T07:37:40.382Z,1005.19
2018-07-26T07:38:40.409Z,1005.21
2018-07-26T07:39:40.438Z,1005.16
2018-07-26T07:40:40.461Z,1005.25
2018-07-26T07:41:40.495Z,1005.25
2018-07-26T07:42:40.517Z,1005.24
2018-07-26T07:43:40.540Z,1005.21
2018-07-26T07:44:40.567Z,1005.2
2018-07-26T07:45:40.593Z,1005.24
2018-07-26T07:46:40.728Z,1005.27
2018-07-26T07:47:40.794Z,1005.25
2018-07-26T07:48:40.674Z,1005.22
2018-07-26T07:49:40.699Z,1005.21
2018-07-26T07:50:40.729Z,1005.21
2018-07-26T07:51:40.753Z,1005.23
2018-07-26T07:52:40.779Z,1005.22
2018-07-26T07:53:40.806Z,1005.16
2018-07-26T07:54:40.832Z,1005.21
2018-07-26T07:55:40.860Z,1005.25
2018-07-26T07:56:40.885Z,1005.17
2018-07-26T07:57:40.911Z,1005.2
2018-07-26T07:58:40.939Z,1005.23
2018-07-26T07:59:41.002Z,1005.24
2018-07-26T08:00:40.991Z,1005.25
2018-07-26T08:01:41.019Z,1005.19
2018-07-26T08:02:41.045Z,1005.22
2018-07-26T08:03:41.074Z,1005.21
2018-07-26T08:04:41.099Z,1005.25
2018-07-26T08:05:41.126Z,1005.2
2018-07-26T08:06:41.168Z,1005.23
2018-07-26T08:07:41.182Z,1005.23
2018-07-26T08:08:41.207Z,1005.22
2018-07-26T08:09:41.234Z,1005.2
2018-07-26T08:10:41.262Z,1005.25
2018-07-26T08:11:41.289Z,1005.18
2018-07-26T08:12:41.360Z,1005.18
2018-07-26T08:13:41.342Z,1005.2
2018-07-26T08:14:41.376Z,1005.23
2018-07-26T08:15:41.397Z,1005.17
2018-07-26T08:16:41.434Z,1005.15
2018-07-26T08:17:41.450Z,1005.18
2018-07-26T08:18:41.480Z,1005.16
2018-07-26T08:19:41.505Z,1005.15
2018-07-26T08:20:41.535Z,1005.16
2018-07-26T08:21:41.560Z,1005.13
2018-07-26T08:22:41.590Z,1005.13
2018-07-26T08:23:41.616Z,1005.12
2018-07-26T08:24:41.644Z,1005.11
2018-07-26T08:25:41.673Z,1005.13
2018-07-26T08:26:41.697Z,1005.15
2018-07-26T08:27:41.726Z,1005.12
2018-07-26T08:28:41.754Z,1005.1
2018-07-26T08:29:41.781Z,1005.14
2018-07-26T08:30:41.823Z,1005.15
2018-07-26T08:31:41.837Z,1005.15
2018-07-26T08:32:41.864Z,1005.08
2018-07-26T08:33:41.890Z,1005.12
2018-07-26T08:34:41.919Z,1005.15
2018-07-26T08:35:41.947Z,1005.13
2018-07-26T08:36:41.979Z,1005.12
2018-07-26T08:37:42.013Z,1005.1
2018-07-26T08:38:42.049Z,1005.14
2018-07-26T08:39:42.059Z,1005.17
2018-07-26T08:40:42.090Z,1005.21
2018-07-26T08:41:42.116Z,1005.18
2018-07-26T08:42:42.143Z,1005.14
2018-07-26T08:43:42.216Z,1005.14
2018-07-26T08:44:42.199Z,1005.13
2018-07-26T08:45:42.231Z,1005.14
2018-07-26T08:46:42.256Z,1005.14
2018-07-26T08:47:42.283Z,1005.13
2018-07-26T08:48:42.312Z,1005.14
2018-07-26T08:49:42.340Z,1005.18
2018-07-26T08:50:42.369Z,1005.16
2018-07-26T08:51:42.397Z,1005.19
2018-07-26T08:52:42.425Z,1005.21
2018-07-26T08:53:42.453Z,1005.19
2018-07-26T08:54:42.483Z,1005.24
2018-07-26T08:55:42.510Z,1005.22
2018-07-26T08:56:42.539Z,1005.18
2018-07-26T08:57:42.568Z,1005.18
2018-07-26T08:58:42.596Z,1005.18
2018-07-26T08:59:42.626Z,1005.23
2018-07-26T09:00:42.654Z,1005.23
2018-07-26T09:01:42.682Z,1005.24
2018-07-26T09:02:42.756Z,1005.23
2018-07-26T09:03:42.741Z,1005.15
2018-07-26T09:04:42.771Z,1005.21
2018-07-26T09:05:42.801Z,1005.15
2018-07-26T09:06:42.828Z,1005.17
2018-07-26T09:07:42.860Z,1005.17
2018-07-26T09:08:42.887Z,1005.19
2018-07-26T09:09:42.917Z,1005.18
2018-07-26T09:10:42.945Z,1005.23
2018-07-26T09:11:42.975Z,1005.18
2018-07-26T09:12:43.003Z,1005.23
2018-07-26T09:13:43.061Z,1005.21
2018-07-26T09:14:43.062Z,1005.18
2018-07-26T09:15:43.094Z,1005.21
2018-07-26T09:16:43.121Z,1005.24
2018-07-26T09:17:43.150Z,1005.22
2018-07-26T09:18:43.181Z,1005.16
2018-07-26T09:19:43.253Z,1005.18
2018-07-26T09:20:43.239Z,1005.13
2018-07-26T09:21:43.268Z,1005.13
2018-07-26T09:22:43.299Z,1005.11
2018-07-26T09:23:43.329Z,1005.02
2018-07-26T09:24:43.360Z,1005.06
2018-07-26T09:25:43.387Z,1005.08
2018-07-26T09:26:43.419Z,1005.07
2018-07-26T09:27:43.448Z,1005.07
2018-07-26T09:28:43.477Z,1005.07
2018-07-26T09:29:43.507Z,1005.08
2018-07-26T09:30:43.537Z,1005.06
2018-07-26T09:31:43.569Z,1005.1
2018-07-26T09:32:43.597Z,1005.11
2018-07-26T09:33:43.629Z,1005.08
2018-07-26T09:34:43.659Z,1005.07
2018-07-26T09:35:43.689Z,1005.03
2018-07-26T09:36:43.717Z,1005.01
2018-07-26T09:37:43.748Z,1004.99
2018-07-26T09:38:43.778Z,1005
2018-07-26T09:39:43.808Z,1005.01
2018-07-26T09:40:43.841Z,1005.05
2018-07-26T09:41:43.874Z,1005.03
2018-07-26T09:42:43.901Z,1005.04
2018-07-26T09:43:43.931Z,1005.06
2018-07-26T09:44:43.962Z,1005.13
2018-07-26T09:45:43.995Z,1005.11
2018-07-26T09:46:44.022Z,1005.09
2018-07-26T09:47:44.054Z,1005.05
2018-07-26T09:48:44.088Z,1005
2018-07-26T09:49:44.123Z,1004.97
2018-07-26T09:50:44.149Z,1004.99
2018-07-26T09:51:44.180Z,1004.96
2018-07-26T09:52:44.209Z,1005
2018-07-26T09:53:44.239Z,1004.98
2018-07-26T09:54:44.273Z,1004.99
2018-07-26T09:55:44.303Z,1004.97
2018-07-26T09:56:44.334Z,1004.96
2018-07-26T09:57:44.363Z,1004.97
2018-07-26T09:58:44.396Z,1004.93
2018-07-26T09:59:44.427Z,1005.02
2018-07-26T10:00:44.460Z,1005.01
2018-07-26T10:01:44.491Z,1004.96
2018-07-26T10:02:44.520Z,1004.95
2018-07-26T10:03:44.554Z,1004.96
2018-07-26T10:04:44.584Z,1005
2018-07-26T10:05:44.616Z,1004.99
2018-07-26T10:06:44.656Z,1004.99
2018-07-26T10:07:44.680Z,1005.03
2018-07-26T10:08:44.710Z,1004.98
2018-07-26T10:09:44.742Z,1004.96
2018-07-26T10:10:44.773Z,1004.96
2018-07-26T10:11:44.806Z,1004.94
2018-07-26T10:12:44.837Z,1004.95
2018-07-26T10:13:44.870Z,1004.97
2018-07-26T10:14:44.905Z,1004.99
2018-07-26T10:15:44.942Z,1004.94
2018-07-26T10:16:44.967Z,1004.95
2018-07-26T10:17:44.997Z,1004.91
2018-07-26T10:18:45.034Z,1004.93
2018-07-26T10:19:45.061Z,1004.91
2018-07-26T10:20:45.101Z,1004.93
2018-07-26T10:21:45.130Z,1004.91
2018-07-26T10:22:45.160Z,1004.94
2018-07-26T10:23:45.190Z,1004.89
2018-07-26T10:24:45.224Z,1004.87
2018-07-26T10:25:45.256Z,1004.98
2018-07-26T10:26:45.289Z,1004.95
2018-07-26T10:27:45.329Z,1004.9
2018-07-26T10:28:45.382Z,1004.85
2018-07-26T10:29:45.384Z,1004.84
2018-07-26T10:30:45.417Z,1004.89
2018-07-26T10:31:45.449Z,1004.88
2018-07-26T10:32:45.482Z,1004.85
2018-07-26T10:33:45.519Z,1004.89
2018-07-26T10:34:45.548Z,1004.9
2018-07-26T10:35:45.581Z,1004.92
2018-07-26T10:36:45.613Z,1004.89
2018-07-26T10:37:45.650Z,1004.88
2018-07-26T10:38:45.681Z,1004.9
2018-07-26T10:39:45.713Z,1004.84
2018-07-26T10:40:45.747Z,1004.88
2018-07-26T10:41:45.791Z,1004.86
2018-07-26T10:42:45.812Z,1004.92
2018-07-26T10:43:45.847Z,1004.87
2018-07-26T10:44:45.878Z,1004.84
2018-07-26T10:45:45.911Z,1004.82
2018-07-26T10:46:45.950Z,1004.83
2018-07-26T10:47:45.979Z,1004.84
2018-07-26T10:48:46.011Z,1004.82
2018-07-26T10:49:46.043Z,1004.82
2018-07-26T10:50:46.077Z,1004.83
2018-07-26T10:51:46.112Z,1004.75
2018-07-26T10:52:46.145Z,1004.77
2018-07-26T10:53:46.179Z,1004.79
2018-07-26T10:54:46.212Z,1004.75
2018-07-26T10:55:46.247Z,1004.69
2018-07-26T10:56:46.329Z,1004.7
2018-07-26T10:57:46.316Z,1004.63
2018-07-26T10:58:46.346Z,1004.69
2018-07-26T10:59:46.380Z,1004.7
2018-07-26T11:00:46.413Z,1004.67
2018-07-26T11:01:46.449Z,1004.67
2018-07-26T11:02:46.481Z,1004.66
2018-07-26T11:03:46.585Z,1004.63
2018-07-26T11:04:46.549Z,1004.58
2018-07-26T11:05:46.584Z,1004.58
2018-07-26T11:06:46.621Z,1004.59
2018-07-26T11:07:46.651Z,1004.56
2018-07-26T11:08:46.686Z,1004.59
2018-07-26T11:09:46.720Z,1004.59
2018-07-26T11:10:46.753Z,1004.58
2018-07-26T11:11:46.789Z,1004.61
2018-07-26T11:12:46.823Z,1004.6
2018-07-26T11:13:46.857Z,1004.58
2018-07-26T11:14:46.893Z,1004.54
2018-07-26T11:15:46.925Z,1004.51
2018-07-26T11:16:46.960Z,1004.56
2018-07-26T11:17:46.995Z,1004.54
2018-07-26T11:18:47.029Z,1004.56
2018-07-26T11:19:47.063Z,1004.54
2018-07-26T11:20:47.097Z,1004.52
2018-07-26T11:21:47.131Z,1004.51
2018-07-26T11:22:47.166Z,1004.57
2018-07-26T11:23:47.203Z,1004.57
2018-07-26T11:24:47.238Z,1004.58
2018-07-26T11:25:47.272Z,1004.58
2018-07-26T11:26:47.307Z,1004.58
2018-07-26T11:27:47.342Z,1004.57
2018-07-26T11:28:47.377Z,1004.58
2018-07-26T11:29:47.425Z,1004.57
2018-07-26T11:30:47.446Z,1004.52
2018-07-26T11:31:47.481Z,1004.5
2018-07-26T11:32:47.517Z,1004.5
2018-07-26T11:33:47.551Z,1004.52
2018-07-26T11:34:47.588Z,1004.55
2018-07-26T11:35:47.644Z,1004.55
2018-07-26T11:36:47.656Z,1004.5
2018-07-26T11:37:47.741Z,1004.53
2018-07-26T11:38:47.728Z,1004.51
2018-07-26T11:39:47.774Z,1004.44
2018-07-26T11:40:47.797Z,1004.47
2018-07-26T11:41:47.901Z,1004.43
2018-07-26T11:42:47.868Z,1004.46
2018-07-26T11:43:47.946Z,1004.51
2018-07-26T11:44:47.939Z,1004.48
2018-07-26T11:45:47.978Z,1004.54
2018-07-26T11:46:48.011Z,1004.55
2018-07-26T11:47:48.047Z,1004.5
2018-07-26T11:48:48.082Z,1004.5
2018-07-26T11:49:48.117Z,1004.48
2018-07-26T11:50:48.156Z,1004.43
2018-07-26T11:51:48.187Z,1004.4
2018-07-26T11:52:48.242Z,1004.36
2018-07-26T11:53:48.260Z,1004.35
2018-07-26T11:54:48.294Z,1004.39
2018-07-26T11:55:48.331Z,1004.39
2018-07-26T11:56:48.397Z,1004.42
2018-07-26T11:57:48.412Z,1004.43
2018-07-26T11:58:48.438Z,1004.39
2018-07-26T11:59:48.479Z,1004.37
2018-07-26T12:00:48.511Z,1004.36
2018-07-26T12:01:48.550Z,1004.34
2018-07-26T12:02:48.582Z,1004.38
2018-07-26T12:03:48.618Z,1004.32
2018-07-26T12:04:48.661Z,1004.32
2018-07-26T12:05:48.690Z,1004.31
2018-07-26T12:06:48.728Z,1004.3
2018-07-26T12:07:48.762Z,1004.35
2018-07-26T12:08:48.801Z,1004.3